Time;durP1;ratioP1;P1;durP2;ratioP2;P2;SDS_P1;SDS_P2;PMS_P1;PMS_P2;Temp;Humidity;BMP_temperature;BMP_pressure;BME280_temperature;BME280_humidity;BME280_pressure;Samples;Min_cycle;Max_cycle;Signal;HPM_P1;HPM_P2
2021/11/24 00:00:54;;;;;;;;;;;;;;;5.82;100.00;101814.28;5094570;28;20035;-69
2021/11/24 00:03:21;;;;;;;;;;;;;;;5.82;100.00;101815.16;5094225;28;19963;-69
2021/11/24 00:05:48;;;;;;;;;;;;;;;5.84;100.00;101807.03;5094195;28;20059;-69
2021/11/24 00:08:15;;;;;;;;;;;;;;;5.81;100.00;101799.94;5094045;28;20407;-69
2021/11/24 00:10:41;;;;;;;;;;;;;;;5.82;100.00;101796.28;5094286;28;19936;-69
2021/11/24 00:13:07;;;;;;;;;;;;;;;5.82;100.00;101785.50;5094269;28;20014;-69
2021/11/24 00:15:34;;;;;;;;;;;;;;;5.81;100.00;101799.06;5093787;28;20393;-69
2021/11/24 00:18:00;;;;;;;;;;;;;;;5.81;100.00;101802.66;5094156;28;20011;-69
2021/11/24 00:20:27;;;;;;;;;;;;;;;5.81;100.00;101805.34;5093850;28;19958;-69
2021/11/24 00:22:55;;;;;;;;;;;;;;;5.80;100.00;101795.50;5094058;28;20362;-69
2021/11/24 00:25:21;;;;;;;;;;;;;;;5.81;100.00;101799.94;5093651;28;20022;-70
2021/11/24 00:27:48;;;;;;;;;;;;;;;5.82;100.00;101798.97;5093807;28;19961;-69
2021/11/24 00:30:14;;;;;;;;;;;;;;;5.84;100.00;101807.03;5094204;28;19943;-69
2021/11/24 00:32:40;;;;;;;;;;;;;;;5.82;100.00;101796.28;5093692;28;19948;-69
2021/11/24 00:35:07;;;;;;;;;;;;;;;5.82;100.00;101801.69;5093396;28;20333;-69
2021/11/24 00:37:34;;;;;;;;;;;;;;;5.80;100.00;101800.88;5093518;28;19959;-68
2021/11/24 00:40:03;;;;;;;;;;;;;;;5.82;100.00;101790.03;5093944;28;20033;-69
2021/11/24 00:42:29;;;;;;;;;;;;;;;5.81;100.00;101788.28;5093449;28;20001;-68
2021/11/24 00:44:55;;;;;;;;;;;;;;;5.83;100.00;101791.78;5093627;28;20001;-68
2021/11/24 00:47:22;;;;;;;;;;;;;;;5.82;100.00;101798.97;5093304;28;20007;-69
2021/11/24 00:49:48;;;;;;;;;;;;;;;5.83;100.00;101789.09;5093451;28;20067;-69
2021/11/24 00:52:14;;;;;;;;;;;;;;;5.82;100.00;101790.91;5093477;28;19967;-69
2021/11/24 00:54:41;;;;;;;;;;;;;;;5.82;100.00;101787.34;5093118;28;20001;-69
2021/11/24 00:57:08;;;;;;;;;;;;;;;5.81;100.00;101794.56;5093329;28;20010;-69
2021/11/24 00:59:34;;;;;;;;;;;;;;;5.80;100.00;101782.03;5093383;28;20035;-70
2021/11/24 01:02:01;;;;;;;;;;;;;;;5.81;100.00;101786.47;5092348;28;19986;-69
2021/11/24 01:04:27;;;;;;;;;;;;;;;5.79;100.00;101791.03;5093295;28;19989;-69
2021/11/24 01:06:53;;;;;;;;;;;;;;;5.79;100.00;101793.75;5092729;28;19963;-69
2021/11/24 01:09:20;;;;;;;;;;;;;;;5.79;100.00;101795.56;5093138;28;20364;-69
2021/11/24 01:11:46;;;;;;;;;;;;;;;5.79;100.00;101792.88;5092963;28;20030;-70
2021/11/24 01:14:14;;;;;;;;;;;;;;;5.80;100.00;101797.28;5093160;28;20054;-69
2021/11/24 01:16:42;;;;;;;;;;;;;;;5.78;100.00;101786.59;5092795;28;20445;-69
2021/11/24 01:19:08;;;;;;;;;;;;;;;5.77;100.00;101794.75;5092676;28;20381;-69
2021/11/24 01:21:35;;;;;;;;;;;;;;;5.74;100.00;101784.97;5092965;28;20428;-71
2021/11/24 01:24:01;;;;;;;;;;;;;;;5.72;100.00;101780.59;5074716;28;19981;-69
2021/11/24 01:26:27;;;;;;;;;;;;;;;5.69;100.00;101784.31;5092621;28;19991;-69
2021/11/24 01:28:53;;;;;;;;;;;;;;;5.67;100.00;101778.97;5092724;28;20339;-69
2021/11/24 01:31:21;;;;;;;;;;;;;;;5.65;100.00;101788.06;5092824;28;19970;-69
2021/11/24 01:33:47;;;;;;;;;;;;;;;5.59;100.00;101775.75;5092704;28;20023;-69
2021/11/24 01:36:14;;;;;;;;;;;;;;;5.52;100.00;101791.31;5092404;28;20042;-69
2021/11/24 01:38:40;;;;;;;;;;;;;;;5.48;100.00;101788.84;5092670;28;20018;-68
2021/11/24 01:41:06;;;;;;;;;;;;;;;5.47;100.00;101787.94;5092471;28;19986;-68
2021/11/24 01:43:33;;;;;;;;;;;;;;;5.46;100.00;101788.00;5092594;28;19963;-69
2021/11/24 01:45:59;;;;;;;;;;;;;;;5.44;100.00;101788.06;5091532;28;19936;-69
2021/11/24 01:48:27;;;;;;;;;;;;;;;5.46;100.00;101786.19;5092285;28;20050;-69
2021/11/24 01:50:54;;;;;;;;;;;;;;;5.48;100.00;101780.75;5092486;28;19970;-69
2021/11/24 01:53:20;;;;;;;;;;;;;;;5.48;100.00;101784.31;5092177;28;20393;-69
2021/11/24 01:55:47;;;;;;;;;;;;;;;5.49;100.00;101775.28;5092406;28;20049;-69
2021/11/24 01:58:13;;;;;;;;;;;;;;;5.47;100.00;101774.47;5092145;28;19961;-69
2021/11/24 02:00:40;;;;;;;;;;;;;;;5.45;100.00;101773.69;5092291;28;20380;-69
2021/11/24 02:03:06;;;;;;;;;;;;;;;5.46;100.00;101780.78;5092325;28;20358;-69
2021/11/24 02:05:34;;;;;;;;;;;;;;;5.45;100.00;101773.69;5091844;28;20045;-69
2021/11/24 02:08:00;;;;;;;;;;;;;;;5.48;100.00;101773.53;5092090;28;20139;-69
2021/11/24 02:10:27;;;;;;;;;;;;;;;5.49;100.00;101769.00;5091796;28;19937;-69
2021/11/24 02:12:53;;;;;;;;;;;;;;;5.50;100.00;101773.47;5092293;28;20006;-69
2021/11/24 02:15:20;;;;;;;;;;;;;;;5.51;100.00;101762.63;5091677;28;19932;-69
2021/11/24 02:17:46;;;;;;;;;;;;;;;5.53;100.00;101759.84;5091841;28;19967;-69
2021/11/24 02:20:15;;;;;;;;;;;;;;;5.55;100.00;101757.97;5092113;28;19974;-69
2021/11/24 02:22:42;;;;;;;;;;;;;;;5.55;100.00;101759.81;5091987;28;19942;-69
2021/11/24 02:25:08;;;;;;;;;;;;;;;5.56;100.00;101757.03;5091886;28;19942;-69
2021/11/24 02:27:35;;;;;;;;;;;;;;;5.56;100.00;101759.75;5091580;28;19935;-69
2021/11/24 02:30:01;;;;;;;;;;;;;;;5.56;100.00;101753.47;5092032;28;19968;-69
2021/11/24 02:32:28;;;;;;;;;;;;;;;5.56;100.00;101751.66;5091711;28;20037;-69
2021/11/24 02:34:54;;;;;;;;;;;;;;;5.58;100.00;101751.59;5091855;28;19939;-69
2021/11/24 02:37:21;;;;;;;;;;;;;;;5.59;100.00;101758.72;5091824;28;19967;-69
2021/11/24 02:39:48;;;;;;;;;;;;;;;5.60;100.00;101747.00;5091703;28;20284;-69
2021/11/24 02:42:15;;;;;;;;;;;;;;;5.58;100.00;101746.19;5091905;28;19938;-69
2021/11/24 02:44:41;;;;;;;;;;;;;;;5.58;100.00;101738.13;5091628;28;20405;-69
2021/11/24 02:47:10;;;;;;;;;;;;;;;5.59;100.00;101738.03;5091522;28;19984;-69
2021/11/24 02:49:37;;;;;;;;;;;;;;;5.58;100.00;101735.44;5091610;28;19924;-69
2021/11/24 02:52:03;;;;;;;;;;;;;;;5.58;100.00;101735.44;5091870;28;19947;-69
2021/11/24 02:54:31;;;;;;;;;;;;;;;5.59;100.00;101737.19;5091772;28;20399;-69
2021/11/24 02:56:58;;;;;;;;;;;;;;;5.56;100.00;101729.22;5091527;28;19935;-69
2021/11/24 02:59:25;;;;;;;;;;;;;;;5.55;100.00;101722.97;5095716;28;19924;-69
2021/11/24 03:01:51;;;;;;;;;;;;;;;5.53;100.00;101727.53;5095619;28;19962;-69
2021/11/24 03:04:18;;;;;;;;;;;;;;;5.54;100.00;101723.91;5095621;28;20139;-69
2021/11/24 03:06:44;;;;;;;;;;;;;;;5.54;100.00;101723.91;5094949;28;20342;-69
2021/11/24 03:09:10;;;;;;;;;;;;;;;5.55;100.00;101722.97;5095549;28;19957;-69
2021/11/24 03:11:38;;;;;;;;;;;;;;;5.57;100.00;101725.59;5095570;28;19935;-69
2021/11/24 03:14:04;;;;;;;;;;;;;;;5.58;100.00;101725.50;5095410;28;20041;-69
2021/11/24 03:16:30;;;;;;;;;;;;;;;5.60;100.00;101725.44;5095110;28;19930;-69
2021/11/24 03:18:56;;;;;;;;;;;;;;;5.59;100.00;101715.63;5094993;28;19984;-69
2021/11/24 03:21:23;;;;;;;;;;;;;;;5.59;100.00;101711.09;5095205;28;19959;-69
2021/11/24 03:23:49;;;;;;;;;;;;;;;5.60;100.00;101717.34;5095057;28;19924;-69
2021/11/24 03:26:15;;;;;;;;;;;;;;;5.59;100.00;101713.81;5095089;28;20319;-69
2021/11/24 03:28:43;;;;;;;;;;;;;;;5.60;100.00;101717.34;5094980;28;19923;-69
2021/11/24 03:31:09;;;;;;;;;;;;;;;5.58;100.00;101709.34;5094956;28;19936;-69
2021/11/24 03:33:35;;;;;;;;;;;;;;;5.58;100.00;101708.50;5095061;28;19941;-69
2021/11/24 03:36:02;;;;;;;;;;;;;;;5.58;100.00;101705.78;5094787;28;19961;-69
2021/11/24 03:38:28;;;;;;;;;;;;;;;5.58;100.00;101703.09;5095104;28;20459;-69
2021/11/24 03:40:54;;;;;;;;;;;;;;;5.59;100.00;101699.47;5076801;28;20002;-69
2021/11/24 03:43:20;;;;;;;;;;;;;;;5.59;100.00;101699.47;5094781;28;19960;-69
2021/11/24 03:45:48;;;;;;;;;;;;;;;5.56;100.00;101695.09;5094724;28;19939;-69
2021/11/24 03:48:15;;;;;;;;;;;;;;;5.56;100.00;101699.59;5094480;28;20323;-69
2021/11/24 03:50:41;;;;;;;;;;;;;;;5.54;100.00;101691.56;5094854;28;20418;-69
2021/11/24 03:53:07;;;;;;;;;;;;;;;5.51;100.00;101692.59;5094481;28;19960;-69
2021/11/24 03:55:34;;;;;;;;;;;;;;;5.48;100.00;101690.03;5094496;28;20005;-69
2021/11/24 03:58:02;;;;;;;;;;;;;;;5.46;100.00;101688.34;5094619;28;20006;-69
2021/11/24 04:00:29;;;;;;;;;;;;;;;5.42;100.00;101690.31;5094313;28;19943;-69
2021/11/24 04:02:56;;;;;;;;;;;;;;;5.42;100.00;101692.13;5094537;28;19945;-68
2021/11/24 04:05:23;;;;;;;;;;;;;;;5.42;100.00;101693.00;5094016;28;19970;-69
2021/11/24 04:07:49;;;;;;;;;;;;;;;5.43;100.00;101700.13;5094256;28;19966;-69
2021/11/24 04:10:15;;;;;;;;;;;;;;;5.46;100.00;101704.50;5093572;28;19936;-69
2021/11/24 04:12:42;;;;;;;;;;;;;;;5.47;100.00;101706.28;5094363;28;19924;-69
2021/11/24 04:15:10;;;;;;;;;;;;;;;5.47;100.00;101696.38;5094168;28;19947;-69
2021/11/24 04:17:36;;;;;;;;;;;;;;;5.47;100.00;101690.97;5094020;28;20523;-69
2021/11/24 04:20:04;;;;;;;;;;;;;;;5.47;100.00;101701.75;5094266;28;20019;-69
2021/11/24 04:22:31;;;;;;;;;;;;;;;5.49;100.00;101699.88;5093875;28;20354;-69
2021/11/24 04:24:57;;;;;;;;;;;;;;;5.48;100.00;101700.81;5094048;28;19935;-69
2021/11/24 04:27:23;;;;;;;;;;;;;;;5.49;100.00;101707.97;5093632;28;19977;-69
2021/11/24 04:29:49;;;;;;;;;;;;;;;5.49;100.00;101702.56;5093928;28;19946;-69
2021/11/24 04:32:17;;;;;;;;;;;;;;;5.49;100.00;101697.19;5093952;28;20113;-69
2021/11/24 04:34:43;;;;;;;;;;;;;;;5.49;100.00;101705.25;5093518;28;19934;-69
2021/11/24 04:37:10;;;;;;;;;;;;;;;5.47;100.00;101701.75;5093711;28;20289;-69
2021/11/24 04:39:37;;;;;;;;;;;;;;;5.45;100.00;101700.97;5075592;28;19946;-69
2021/11/24 04:42:03;;;;;;;;;;;;;;;5.46;100.00;101702.69;5093835;28;20037;-69
2021/11/24 04:44:30;;;;;;;;;;;;;;;5.45;100.00;101694.69;5093370;28;19975;-69
2021/11/24 04:46:56;;;;;;;;;;;;;;;5.44;100.00;101693.81;5093392;28;19937;-69
2021/11/24 04:49:22;;;;;;;;;;;;;;;5.44;100.00;101693.81;5093378;28;19924;-69
2021/11/24 04:51:49;;;;;;;;;;;;;;;5.43;100.00;101685.81;5093400;28;20405;-69
2021/11/24 04:54:16;;;;;;;;;;;;;;;5.42;100.00;101693.00;5093405;28;19924;-69
2021/11/24 04:56:43;;;;;;;;;;;;;;;5.43;100.00;101689.38;5093146;28;20022;-69
2021/11/24 04:59:09;;;;;;;;;;;;;;;5.43;100.00;101694.75;5075355;28;19966;-69
2021/11/24 05:01:35;;;;;;;;;;;;;;;5.44;100.00;101701.00;5093288;28;19928;-69
2021/11/24 05:04:01;;;;;;;;;;;;;;;5.44;100.00;101693.81;5092873;28;20045;-69
2021/11/24 05:06:28;;;;;;;;;;;;;;;5.44;100.00;101701.00;5093025;28;19969;-69
2021/11/24 05:08:54;;;;;;;;;;;;;;;5.43;100.00;101693.91;5092992;28;20447;-69
2021/11/24 05:11:22;;;;;;;;;;;;;;;5.39;100.00;101695.84;5093174;28;20044;-69
2021/11/24 05:13:51;;;;;;;;;;;;;;;5.40;100.00;101694.91;5092924;28;19943;-69
2021/11/24 05:16:18;;;;;;;;;;;;;;;5.38;100.00;101694.06;5092960;28;19939;-69
2021/11/24 05:18:47;;;;;;;;;;;;;;;5.38;100.00;101694.06;5092963;28;20442;-69
2021/11/24 05:21:16;;;;;;;;;;;;;;;5.38;100.00;101691.38;5092248;28;19932;-69
2021/11/24 05:23:43;;;;;;;;;;;;;;;5.37;100.00;101678.84;5092978;28;19927;-69
2021/11/24 05:26:10;;;;;;;;;;;;;;;5.36;100.00;101690.59;5092666;28;19928;-69
2021/11/24 05:28:38;;;;;;;;;;;;;;;5.34;100.00;101682.59;5092622;28;19959;-69
2021/11/24 05:31:04;;;;;;;;;;;;;;;5.34;100.00;101681.69;5092824;28;20399;-69
2021/11/24 05:33:31;;;;;;;;;;;;;;;5.34;100.00;101689.78;5092737;28;19985;-69
2021/11/24 05:35:57;;;;;;;;;;;;;;;5.34;100.00;101684.38;5092766;28;19945;-68
2021/11/24 05:38:23;;;;;;;;;;;;;;;5.34;100.00;101689.78;5092322;28;19955;-69
2021/11/24 05:40:50;;;;;;;;;;;;;;;5.34;100.00;101687.09;5092461;28;20056;-70
2021/11/24 05:43:19;;;;;;;;;;;;;;;5.35;100.00;101680.75;5092321;28;20339;-69
2021/11/24 05:46:10;;;;;;;;;;;;;;;5.34;100.00;101674.50;5092527;28;20345;-69
2021/11/24 05:48:35;;;;;;;;;;;;;;;5.34;100.00;101679.91;5089480;28;20354;-69
2021/11/24 05:51:02;;;;;;;;;;;;;;;5.34;100.00;101684.38;5090586;28;19961;-69
2021/11/24 05:53:28;;;;;;;;;;;;;;;5.33;100.00;101679.94;5092311;28;19939;-69
2021/11/24 05:55:54;;;;;;;;;;;;;;;5.35;100.00;101680.75;5091583;28;20010;-69
2021/11/24 05:58:21;;;;;;;;;;;;;;;5.36;100.00;101678.00;5092215;28;20049;-69
2021/11/24 06:00:49;;;;;;;;;;;;;;;5.36;100.00;101685.22;5091388;28;20002;-69
2021/11/24 06:03:15;;;;;;;;;;;;;;;5.34;100.00;101679.00;5074060;28;20061;-69
2021/11/24 06:05:42;;;;;;;;;;;;;;;5.34;100.00;101682.59;5091624;28;19944;-69
2021/11/24 06:08:08;;;;;;;;;;;;;;;5.35;100.00;101689.69;5091478;28;19971;-69
2021/11/24 06:10:35;;;;;;;;;;;;;;;5.34;100.00;101677.19;5092043;28;19968;-70
2021/11/24 06:13:01;;;;;;;;;;;;;;;5.34;100.00;101673.63;5091557;28;19940;-69
2021/11/24 06:15:29;;;;;;;;;;;;;;;5.34;100.00;101674.50;5091740;28;20393;-69
2021/11/24 06:17:57;;;;;;;;;;;;;;;5.32;100.00;101675.53;5091253;28;19924;-69
2021/11/24 06:20:23;;;;;;;;;;;;;;;5.31;100.00;101677.31;5090953;28;20323;-69
2021/11/24 06:22:50;;;;;;;;;;;;;;;5.31;100.00;101684.53;5073509;28;19945;-69
2021/11/24 06:25:16;;;;;;;;;;;;;;;5.27;100.00;101667.63;5091490;28;19939;-69
2021/11/24 06:27:43;;;;;;;;;;;;;;;5.23;100.00;101668.72;5072983;28;20018;-69
2021/11/24 06:30:10;;;;;;;;;;;;;;;5.17;100.00;101677.94;5091979;28;20059;-69
2021/11/24 06:32:36;;;;;;;;;;;;;;;5.16;100.00;101686.09;5093628;28;19939;-69
2021/11/24 06:35:04;;;;;;;;;;;;;;;5.17;100.00;101683.31;5096955;28;19930;-69
2021/11/24 06:37:31;;;;;;;;;;;;;;;5.19;100.00;101677.88;5095782;28;19924;-69
2021/11/24 06:39:57;;;;;;;;;;;;;;;5.21;100.00;101678.66;5096429;28;19954;-69
2021/11/24 06:42:23;;;;;;;;;;;;;;;5.23;100.00;101682.16;5095935;28;20383;-69
2021/11/24 06:44:49;;;;;;;;;;;;;;;5.26;100.00;101687.41;5096096;28;20300;-69
2021/11/24 06:47:17;;;;;;;;;;;;;;;5.29;100.00;101686.41;5096692;28;20018;-69
2021/11/24 06:49:45;;;;;;;;;;;;;;;5.29;100.00;101684.59;5073068;28;20028;-69
2021/11/24 06:52:13;;;;;;;;;;;;;;;5.29;100.00;101683.72;5094892;28;20397;-69
2021/11/24 06:54:39;;;;;;;;;;;;;;;5.29;100.00;101686.41;5097553;28;19961;-69
2021/11/24 06:57:06;;;;;;;;;;;;;;;5.29;100.00;101690.00;5098285;28;20063;-69
2021/11/24 06:59:32;;;;;;;;;;;;;;;5.31;100.00;101685.41;5098122;28;19930;-69
2021/11/24 07:01:58;;;;;;;;;;;;;;;5.32;100.00;101689.84;5097737;28;19939;-69
2021/11/24 07:04:24;;;;;;;;;;;;;;;5.31;100.00;101685.41;5097096;28;19969;-69
2021/11/24 07:06:51;;;;;;;;;;;;;;;5.32;100.00;101694.38;5097663;28;20018;-69
2021/11/24 07:09:18;;;;;;;;;;;;;;;5.32;100.00;101692.53;5098040;28;20056;-69
2021/11/24 07:11:44;;;;;;;;;;;;;;;5.34;100.00;101696.06;5097806;28;19930;-69
2021/11/24 07:14:11;;;;;;;;;;;;;;;5.35;100.00;101696.91;5097815;28;20359;-69
2021/11/24 07:16:37;;;;;;;;;;;;;;;5.34;100.00;101700.53;5097670;28;20023;-69
2021/11/24 07:19:03;;;;;;;;;;;;;;;5.36;100.00;101693.28;5097556;28;19924;-69
2021/11/24 07:21:30;;;;;;;;;;;;;;;5.39;100.00;101698.53;5097603;28;19950;-69
2021/11/24 07:23:56;;;;;;;;;;;;;;;5.42;100.00;101702.91;5097452;28;20384;-69
2021/11/24 07:26:24;;;;;;;;;;;;;;;5.44;100.00;101696.50;5097564;28;20053;-69
2021/11/24 07:28:50;;;;;;;;;;;;;;;5.48;100.00;101705.34;5097793;28;19989;-69
2021/11/24 07:31:16;;;;;;;;;;;;;;;5.48;100.00;101702.66;5097496;28;19996;-69
2021/11/24 07:33:43;;;;;;;;;;;;;;;5.47;100.00;101696.38;5097839;28;19948;-69
2021/11/24 07:36:09;;;;;;;;;;;;;;;5.49;100.00;101694.50;5097185;28;19945;-69
2021/11/24 07:38:35;;;;;;;;;;;;;;;5.48;100.00;101692.75;5096799;28;20433;-69
2021/11/24 07:41:02;;;;;;;;;;;;;;;5.52;100.00;101697.03;5097438;28;19940;-69
2021/11/24 07:43:31;;;;;;;;;;;;;;;5.54;100.00;101694.28;5096617;28;19942;-69
2021/11/24 07:45:57;;;;;;;;;;;;;;;5.56;100.00;101700.47;5093685;28;19958;-69
2021/11/24 07:48:24;;;;;;;;;;;;;;;5.56;100.00;101699.59;5093333;28;19930;-70
2021/11/24 07:50:51;;;;;;;;;;;;;;;5.56;100.00;101695.09;5094145;28;19963;-69
2021/11/24 07:53:17;;;;;;;;;;;;;;;5.62;100.00;101702.00;5094470;28;20369;-69
2021/11/24 07:55:43;;;;;;;;;;;;;;;5.63;100.00;101704.63;5093792;28;19928;-69
2021/11/24 07:58:12;;;;;;;;;;;;;;;5.66;100.00;101698.25;5094243;28;19957;-69
2021/11/24 08:00:39;;;;;;;;;;;;;;;5.66;100.00;101692.84;5075744;28;19950;-69
2021/11/24 08:03:06;;;;;;;;;;;;;;;5.67;100.00;101695.47;5094160;28;19924;-69
2021/11/24 08:05:32;;;;;;;;;;;;;;;5.70;100.00;101691.75;5093954;28;19963;-69
2021/11/24 08:07:58;;;;;;;;;;;;;;;5.77;100.00;101703.13;5093767;28;20017;-69
2021/11/24 08:10:25;;;;;;;;;;;;;;;5.82;100.00;101693.88;5093926;28;19957;-69
2021/11/24 08:12:51;;;;;;;;;;;;;;;5.82;100.00;101695.72;5082796;28;20457;-69
2021/11/24 08:15:17;;;;;;;;;;;;;;;5.83;100.00;101684.88;5075661;28;20396;-69
2021/11/24 08:17:45;;;;;;;;;;;;;;;5.86;100.00;101684.72;5093564;28;20152;-69
2021/11/24 08:20:11;;;;;;;;;;;;;;;5.90;100.00;101690.00;5093648;28;20019;-69
2021/11/24 08:22:38;;;;;;;;;;;;;;;5.92;100.00;101686.28;5093427;28;19938;-69
2021/11/24 08:25:04;;;;;;;;;;;;;;;5.98;100.00;101679.75;5093465;28;20476;-69
2021/11/24 08:27:31;;;;;;;;;;;;;;;6.01;100.00;101683.19;5093462;28;19987;-69
2021/11/24 08:29:57;;;;;;;;;;;;;;;6.00;100.00;101677.88;5093485;28;20066;-69
2021/11/24 08:32:23;;;;;;;;;;;;;;;5.98;100.00;101677.91;5093419;28;20416;-69
2021/11/24 08:34:51;;;;;;;;;;;;;;;5.94;100.00;101675.41;5093649;28;19924;-69
2021/11/24 08:37:17;;;;;;;;;;;;;;;5.97;100.00;101680.66;5092882;28;19966;-69
2021/11/24 08:39:46;;;;;;;;;;;;;;;6.04;100.00;101679.47;5075431;28;19924;-69
2021/11/24 08:42:13;;;;;;;;;;;;;;;6.17;100.00;101675.25;5091598;28;20540;-69
2021/11/24 08:44:39;;;;;;;;;;;;;;;6.19;100.00;101675.19;5092467;28;19964;-69
2021/11/24 08:47:05;;;;;;;;;;;;;;;6.22;100.00;101676.84;5092286;28;20057;-69
2021/11/24 08:49:31;;;;;;;;;;;;;;;6.20;100.00;101672.41;5092904;28;19961;-69
2021/11/24 08:51:59;;;;;;;;;;;;;;;6.24;100.00;101673.13;5092345;28;20082;-70
2021/11/24 08:54:26;;;;;;;;;;;;;;;6.52;100.00;101667.28;5092825;28;19959;-70
2021/11/24 08:56:53;;;;;;;;;;;;;;;6.81;100.00;101670.31;5092844;28;19970;-69
2021/11/24 08:59:19;;;;;;;;;;;;;;;6.95;100.00;101668.75;5074528;28;20293;-70
2021/11/24 09:01:46;;;;;;;;;;;;;;;6.97;100.00;101673.13;5092631;28;20049;-69
2021/11/24 09:04:12;;;;;;;;;;;;;;;6.83;100.00;101668.44;5092075;28;19946;-70
2021/11/24 09:06:38;;;;;;;;;;;;;;;6.82;100.00;101673.91;5091665;28;19965;-70
2021/11/24 09:09:07;;;;;;;;;;;;;;;6.76;100.00;101663.41;5092641;28;20100;-70
2021/11/24 09:11:33;;;;;;;;;;;;;;;6.75;100.00;101670.66;5091850;28;19938;-69
2021/11/24 09:13:59;;;;;;;;;;;;;;;6.70;100.00;101673.56;5092716;28;19981;-69
2021/11/24 09:16:26;;;;;;;;;;;;;;;6.76;100.00;101674.22;5091844;28;20435;-69
2021/11/24 09:18:52;;;;;;;;;;;;;;;6.73;100.00;101667.13;5092427;28;20061;-70
2021/11/24 09:21:19;;;;;;;;;;;;;;;6.66;100.00;101665.72;5091918;28;20429;-70
2021/11/24 09:23:46;;;;;;;;;;;;;;;6.61;100.00;101663.22;5092414;28;19942;-70
2021/11/24 09:26:19;;;;;;;;;;;;;;;6.72;100.00;101675.31;5092355;28;19938;-70
2021/11/24 09:28:46;;;;;;;;;;;;;;;6.72;100.00;101668.13;5092440;28;19959;-69
2021/11/24 09:31:12;;;;;;;;;;;;;;;6.75;100.00;101665.25;5091851;28;19981;-70
2021/11/24 09:33:39;;;;;;;;;;;;;;;6.77;100.00;101662.47;5092462;28;19979;-69
2021/11/24 09:36:06;;;;;;;;;;;;;;;6.71;100.00;101658.25;5091747;28;19950;-69
2021/11/24 09:38:32;;;;;;;;;;;;;;;6.66;100.00;101657.63;5091398;28;19954;-69
2021/11/24 09:41:02;;;;;;;;;;;;;;;6.59;100.00;101664.25;5091824;28;19939;-69
2021/11/24 09:43:31;;;;;;;;;;;;;;;6.66;100.00;101663.88;5090802;28;20388;-69
2021/11/24 09:45:58;;;;;;;;;;;;;;;6.71;100.00;101652.88;5090333;28;19924;-69
2021/11/24 09:48:25;;;;;;;;;;;;;;;6.75;100.00;101650.88;5091796;28;19964;-69
2021/11/24 09:50:51;;;;;;;;;;;;;;;6.78;100.00;101648.91;5091512;28;19992;-70
2021/11/24 09:53:18;;;;;;;;;;;;;;;6.78;100.00;101651.59;5092021;28;20028;-69
2021/11/24 09:55:44;;;;;;;;;;;;;;;6.74;100.00;101646.44;5091168;28;19947;-69
2021/11/24 09:58:12;;;;;;;;;;;;;;;6.66;100.00;101646.81;5091210;28;19963;-69
2021/11/24 10:00:40;;;;;;;;;;;;;;;6.66;100.00;101649.53;5090905;28;19947;-69
2021/11/24 10:03:07;;;;;;;;;;;;;;;6.52;100.00;101639.41;5092045;28;19942;-70
2021/11/24 10:05:35;;;;;;;;;;;;;;;6.49;100.00;101643.16;5090078;28;19946;-69
2021/11/24 10:08:01;;;;;;;;;;;;;;;6.43;100.00;101643.44;5091600;28;20489;-69
2021/11/24 10:10:28;;;;;;;;;;;;;;;6.39;100.00;101644.53;5091524;28;20006;-69
2021/11/24 10:12:55;;;;;;;;;;;;;;;6.35;100.00;101637.56;5091072;28;19924;-70
2021/11/24 10:15:42;;;;;;;;;;;;;;;6.32;100.00;101645.78;5088538;28;19943;-69
2021/11/24 10:18:17;;;;;;;;;;;;;;;6.32;100.00;101641.28;5084305;28;19972;-69
2021/11/24 10:20:47;;;;;;;;;;;;;;;6.42;100.00;101641.69;5091248;28;20008;-70
2021/11/24 10:23:24;;;;;;;;;;;;;;;6.45;100.00;101638.84;5085718;28;19960;-70
2021/11/24 10:25:51;;;;;;;;;;;;;;;6.52;100.00;101632.19;5091124;28;19943;-68
2021/11/24 10:28:28;;;;;;;;;;;;;;;6.56;100.00;101623.94;5091224;28;20442;-70
2021/11/24 10:30:56;;;;;;;;;;;;;;;6.60;100.00;101617.44;5072865;28;20053;-70
2021/11/24 10:33:26;;;;;;;;;;;;;;;6.60;100.00;101612.03;5090327;28;19948;-70
2021/11/24 10:36:06;;;;;;;;;;;;;;;6.73;100.00;101610.47;5091172;28;19946;-70
2021/11/24 10:38:38;;;;;;;;;;;;;;;6.84;100.00;101604.53;5090767;28;20005;-68
2021/11/24 10:41:05;;;;;;;;;;;;;;;6.96;100.00;101600.31;5091782;28;20392;-69
2021/11/24 10:43:40;;;;;;;;;;;;;;;7.01;100.00;101598.25;5090620;28;19948;-69
2021/11/24 10:46:07;;;;;;;;;;;;;;;7.04;100.00;101589.97;5080172;28;19972;-69
2021/11/24 10:48:34;;;;;;;;;;;;;;;7.06;100.00;101592.63;5071611;28;19954;-69
2021/11/24 10:51:02;;;;;;;;;;;;;;;7.02;100.00;101592.75;5091188;28;20034;-69
2021/11/24 10:53:28;;;;;;;;;;;;;;;7.07;100.00;101592.53;5090572;28;20406;-70
2021/11/24 10:55:55;;;;;;;;;;;;;;;7.22;100.00;101590.84;5091110;28;19949;-68
2021/11/24 10:58:25;;;;;;;;;;;;;;;7.28;100.00;101587.84;5091138;28;19962;-69
2021/11/24 11:00:52;;;;;;;;;;;;;;;7.19;100.00;101580.22;5090608;28;20009;-70
2021/11/24 11:03:21;;;;;;;;;;;;;;;7.11;100.00;101572.53;5090922;28;20429;-69
2021/11/24 11:05:53;;;;;;;;;;;;;;;7.06;100.00;101573.72;5090549;28;20032;-70
2021/11/24 11:08:20;;;;;;;;;;;;;;;7.08;100.00;101574.50;5091255;28;19973;-70
2021/11/24 11:10:49;;;;;;;;;;;;;;;6.95;100.00;101563.47;5090132;28;19981;-69
2021/11/24 11:13:16;;;;;;;;;;;;;;;6.91;100.00;101556.50;5091272;28;19938;-69
2021/11/24 11:15:44;;;;;;;;;;;;;;;6.86;100.00;101565.69;5090730;28;20038;-68
2021/11/24 11:18:12;;;;;;;;;;;;;;;6.85;100.00;101555.88;5090522;28;20576;-68
2021/11/24 11:20:41;;;;;;;;;;;;;;;6.82;100.00;101556.03;5092614;28;19924;-68
2021/11/24 11:23:13;;;;;;;;;;;;;;;6.82;100.00;101560.56;5077961;28;19944;-70
2021/11/24 11:25:41;;;;;;;;;;;;;;;6.83;100.00;101555.09;5081734;28;19946;-68
2021/11/24 11:28:08;;;;;;;;;;;;;;;6.78;100.00;101550.88;5094904;28;20481;-70
2021/11/24 11:30:35;;;;;;;;;;;;;;;6.82;100.00;101558.72;5092460;28;19951;-70
2021/11/24 11:33:01;;;;;;;;;;;;;;;6.78;100.00;101551.75;5086458;28;19952;-69
2021/11/24 11:35:28;;;;;;;;;;;;;;;6.75;100.00;101546.53;5093416;28;20028;-69
2021/11/24 11:37:55;;;;;;;;;;;;;;;6.71;100.00;101539.53;5093985;28;19958;-70
2021/11/24 11:40:23;;;;;;;;;;;;;;;6.67;100.00;101536.13;5094362;28;19941;-69
2021/11/24 11:42:50;;;;;;;;;;;;;;;6.68;100.00;101539.66;5094738;28;20265;-68
2021/11/24 11:45:17;;;;;;;;;;;;;;;6.70;100.00;101537.78;5094438;28;20029;-69
2021/11/24 11:47:52;;;;;;;;;;;;;;;6.68;100.00;101534.28;5093806;28;19960;-71
2021/11/24 11:50:37;;;;;;;;;;;;;;;6.60;100.00;101529.31;5083384;28;19968;-70
2021/11/24 11:53:10;;;;;;;;;;;;;;;6.63;100.00;101525.56;5093817;28;19948;-69
2021/11/24 11:55:37;;;;;;;;;;;;;;;6.63;100.00;101520.19;5093200;28;19943;-70
2021/11/24 11:58:20;;;;;;;;;;;;;;;6.61;100.00;101522.06;5080288;28;19962;-70
2021/11/24 12:01:01;;;;;;;;;;;;;;;6.57;100.00;101525.88;5073950;28;19924;-70
2021/11/24 12:03:42;;;;;;;;;;;;;;;6.54;100.00;101521.53;5073881;28;20095;-70
2021/11/24 12:06:19;;;;;;;;;;;;;;;6.50;100.00;101512.69;5075362;28;20398;-70
2021/11/24 12:09:00;;;;;;;;;;;;;;;6.49;100.00;101512.78;5093955;28;19954;-70
2021/11/24 12:11:48;;;;;;;;;;;;;;;6.52;100.00;101507.22;5092377;28;20154;-70
2021/11/24 12:14:29;;;;;;;;;;;;;;;6.53;100.00;101507.16;5093871;28;20038;-70
2021/11/24 12:16:55;;;;;;;;;;;;;;;6.62;100.00;101510.34;5092635;28;20045;-70
2021/11/24 12:19:34;;;;;;;;;;;;;;;6.72;100.00;101506.22;5092369;28;21432;-70
2021/11/24 12:22:00;;;;;;;;;;;;;;;6.84;100.00;101500.16;5088581;28;19992;-70
2021/11/24 12:24:46;;;;;;;;;;;;;;;6.94;100.00;101494.28;5089511;28;20407;-70
2021/11/24 12:27:13;;;;;;;;;;;;;;;7.02;100.00;101490.19;5093058;28;19954;-71
2021/11/24 12:29:43;;;;;;;;;;;;;;;7.09;100.00;101490.72;5092545;28;20028;-70
2021/11/24 12:32:09;;;;;;;;;;;;;;;7.11;100.00;101490.63;5091785;28;20055;-70
2021/11/24 12:34:46;;;;;;;;;;;;;;;7.08;100.00;101486.31;5093564;28;19944;-69
2021/11/24 12:37:17;;;;;;;;;;;;;;;7.07;100.00;101487.25;5092894;28;20058;-69